Time;durP1;ratioP1;P1;durP2;ratioP2;P2;SDS_P1;SDS_P2;PMS_P1;PMS_P2;Temp;Humidity;BMP_temperature;BMP_pressure;BME280_temperature;BME280_humidity;BME280_pressure;Samples;Min_cycle;Max_cycle;Signal;HPM_P1;HPM_P2
2023/02/17 00:01:59;;;;;;;17.90;13.60;;;;;;;;;;5053204;28;20381;-91
2023/02/17 00:04:27;;;;;;;15.77;13.10;;;;;;;;;;5034747;28;20420;-89
2023/02/17 00:06:53;;;;;;;15.82;12.80;;;;;;;;;;5037487;28;20853;-89
2023/02/17 00:09:19;;;;;;;18.98;13.07;;;;;;;;;;5073045;28;20389;-91
2023/02/17 00:11:45;;;;;;;18.38;13.32;;;;;;;;;;5073254;28;20491;-91
2023/02/17 00:14:12;;;;;;;16.17;12.87;;;;;;;;;;5054960;28;20894;-89
2023/02/17 00:16:38;;;;;;;16.20;13.43;;;;;;;;;;5073121;28;20556;-89
2023/02/17 00:19:22;;;;;;;16.77;12.93;;;;;;;;;;5073082;28;20492;-90
2023/02/17 00:21:48;;;;;;;14.88;12.57;;;;;;;;;;5073009;28;20368;-90
2023/02/17 00:24:14;;;;;;;15.90;12.77;;;;;;;;;;5054783;28;21070;-90
2023/02/17 00:26:40;;;;;;;17.02;12.65;;;;;;;;;;5062277;28;20385;-91
2023/02/17 00:29:06;;;;;;;18.33;13.07;;;;;;;;;;5060559;28;20806;-89
2023/02/17 00:31:32;;;;;;;14.77;13.20;;;;;;;;;;5072785;28;20525;-90
2023/02/17 00:33:58;;;;;;;16.48;13.00;;;;;;;;;;5055585;28;20878;-89
2023/02/17 00:36:24;;;;;;;16.23;12.95;;;;;;;;;;5072707;28;20470;-89
2023/02/17 00:38:51;;;;;;;15.80;12.70;;;;;;;;;;5072570;28;20408;-89
2023/02/17 00:41:18;;;;;;;15.83;12.90;;;;;;;;;;5072502;28;20434;-90
2023/02/17 00:43:44;;;;;;;16.43;12.03;;;;;;;;;;5072460;28;20871;-89
2023/02/17 00:46:10;;;;;;;16.42;12.63;;;;;;;;;;5065468;28;20471;-90
2023/02/17 00:48:36;;;;;;;13.18;11.77;;;;;;;;;;5071110;28;20399;-90
2023/02/17 00:51:02;;;;;;;17.13;12.15;;;;;;;;;;5072353;28;20384;-89
2023/02/17 00:53:28;;;;;;;14.32;12.27;;;;;;;;;;5072180;28;20388;-91
2023/02/17 00:55:54;;;;;;;15.27;11.80;;;;;;;;;;5054691;28;20392;-89
2023/02/17 00:58:20;;;;;;;18.83;12.27;;;;;;;;;;5063007;28;20405;-91
2023/02/17 01:00:46;;;;;;;14.68;12.75;;;;;;;;;;5072197;28;20380;-89
2023/02/17 01:03:12;;;;;;;13.23;11.80;;;;;;;;;;5072034;28;20384;-91
2023/02/17 01:05:44;;;;;;;14.35;12.18;;;;;;;;;;5071784;28;20382;-91
2023/02/17 01:08:11;;;;;;;13.73;12.10;;;;;;;;;;5054186;28;20435;-89
2023/02/17 01:10:38;;;;;;;13.60;11.63;;;;;;;;;;5071875;28;20387;-90
2023/02/17 01:13:04;;;;;;;15.82;12.00;;;;;;;;;;5071629;28;21176;-89
2023/02/17 01:15:31;;;;;;;16.15;12.60;;;;;;;;;;5071892;28;20475;-88
2023/02/17 01:17:57;;;;;;;13.05;11.68;;;;;;;;;;5071820;28;20443;-91
2023/02/17 01:20:23;;;;;;;12.82;11.35;;;;;;;;;;5053718;28;20467;-89
2023/02/17 01:22:49;;;;;;;13.77;12.18;;;;;;;;;;5053714;28;20460;-91
2023/02/17 01:25:15;;;;;;;16.80;11.90;;;;;;;;;;5071700;28;20466;-89
2023/02/17 01:27:41;;;;;;;15.37;12.33;;;;;;;;;;5071605;28;20856;-90
2023/02/17 01:30:07;;;;;;;13.65;12.07;;;;;;;;;;5062617;28;20432;-88
2023/02/17 01:32:33;;;;;;;13.40;11.35;;;;;;;;;;5071520;28;20380;-90
2023/02/17 01:34:59;;;;;;;13.40;11.77;;;;;;;;;;5053577;28;20384;-89
2023/02/17 01:37:25;;;;;;;18.52;12.65;;;;;;;;;;5071590;28;20392;-92
2023/02/17 01:39:51;;;;;;;14.03;11.83;;;;;;;;;;5071377;28;20490;-91
2023/02/17 01:42:19;;;;;;;13.73;12.20;;;;;;;;;;5053195;28;20380;-89
2023/02/17 01:45:04;;;;;;;14.73;11.68;;;;;;;;;;5053385;28;20475;-90
2023/02/17 01:47:30;;;;;;;14.15;11.32;;;;;;;;;;5071450;28;20385;-90
2023/02/17 01:49:56;;;;;;;14.32;11.43;;;;;;;;;;5071367;28;20379;-89
2023/02/17 01:52:25;;;;;;;15.02;11.73;;;;;;;;;;5071333;28;20380;-90
2023/02/17 01:54:51;;;;;;;15.32;12.80;;;;;;;;;;5071226;28;20876;-90
2023/02/17 01:57:18;;;;;;;13.93;12.43;;;;;;;;;;5053549;28;20430;-89
2023/02/17 01:59:45;;;;;;;17.63;13.13;;;;;;;;;;5070481;28;20415;-90
2023/02/17 02:02:11;;;;;;;16.70;13.37;;;;;;;;;;5046767;28;20392;-90
2023/02/17 02:04:39;;;;;;;15.43;13.75;;;;;;;;;;5053312;28;20391;-89
2023/02/17 02:07:05;;;;;;;17.63;14.95;;;;;;;;;;5071154;28;20376;-90
2023/02/17 02:09:43;;;;;;;17.58;13.38;;;;;;;;;;5071181;28;20387;-91
2023/02/17 02:12:20;;;;;;;14.82;12.70;;;;;;;;;;5070939;28;20491;-90
2023/02/17 02:14:46;;;;;;;15.53;13.23;;;;;;;;;;5071261;28;20391;-90
2023/02/17 02:17:26;;;;;;;16.88;12.80;;;;;;;;;;5071243;28;20387;-90
2023/02/17 02:19:51;;;;;;;16.02;13.07;;;;;;;;;;5071113;28;20486;-90
2023/02/17 02:22:36;;;;;;;17.17;13.63;;;;;;;;;;5053215;28;20471;-89
2023/02/17 02:25:08;;;;;;;17.48;13.00;;;;;;;;;;5053117;28;20376;-90
2023/02/17 02:27:40;;;;;;;16.55;13.13;;;;;;;;;;5070970;28;20861;-89
2023/02/17 02:30:25;;;;;;;14.20;12.50;;;;;;;;;;5062214;28;20423;-90
2023/02/17 02:33:00;;;;;;;15.48;12.38;;;;;;;;;;5065146;28;20464;-89
2023/02/17 02:35:33;;;;;;;13.73;11.45;;;;;;;;;;5029263;28;20395;-90
2023/02/17 02:38:26;;;;;;;13.15;11.57;;;;;;;;;;5070881;28;20395;-89
2023/02/17 02:40:55;;;;;;;14.88;11.10;;;;;;;;;;5066889;28;20517;-89
2023/02/17 02:43:21;;;;;;;14.40;11.98;;;;;;;;;;5070293;28;20387;-89
2023/02/17 02:45:47;;;;;;;16.58;13.43;;;;;;;;;;5070858;28;20380;-89
2023/02/17 02:48:13;;;;;;;17.65;13.45;;;;;;;;;;5070824;28;20372;-90
2023/02/17 02:50:55;;;;;;;18.80;14.30;;;;;;;;;;5065691;28;20381;-89
2023/02/17 02:53:21;;;;;;;23.40;16.38;;;;;;;;;;5066615;28;20394;-89
2023/02/17 02:55:52;;;;;;;26.50;18.98;;;;;;;;;;5058620;28;20384;-89
2023/02/17 02:58:21;;;;;;;32.75;20.63;;;;;;;;;;5070487;28;20809;-89
2023/02/17 03:00:57;;;;;;;29.80;19.73;;;;;;;;;;5070640;28;20487;-89
2023/02/17 03:03:35;;;;;;;27.52;18.50;;;;;;;;;;5070479;28;20463;-90
2023/02/17 03:06:04;;;;;;;24.17;16.98;;;;;;;;;;5052582;28;20800;-89
2023/02/17 03:08:39;;;;;;;22.38;16.30;;;;;;;;;;5070576;28;20800;-89
2023/02/17 03:11:05;;;;;;;20.27;15.82;;;;;;;;;;5072546;28;20849;-88
2023/02/17 03:13:32;;;;;;;22.25;15.93;;;;;;;;;;5055987;28;20461;-89
2023/02/17 03:15:58;;;;;;;19.42;14.82;;;;;;;;;;5074146;28;20865;-89
2023/02/17 03:18:24;;;;;;;24.63;14.90;;;;;;;;;;5074032;28;20437;-88
2023/02/17 03:20:52;;;;;;;22.58;14.18;;;;;;;;;;5074044;28;20434;-88
2023/02/17 03:23:19;;;;;;;16.20;12.93;;;;;;;;;;5074028;28;20443;-90
2023/02/17 03:25:46;;;;;;;15.20;12.00;;;;;;;;;;5056719;28;21094;-88
2023/02/17 03:28:12;;;;;;;13.68;12.23;;;;;;;;;;5050983;28;20401;-89
2023/02/17 03:30:38;;;;;;;14.65;11.98;;;;;;;;;;5050430;28;20496;-89
2023/02/17 03:33:04;;;;;;;12.25;10.95;;;;;;;;;;5055284;28;20410;-88
2023/02/17 03:35:30;;;;;;;13.35;11.48;;;;;;;;;;5071985;28;20908;-89
2023/02/17 03:37:56;;;;;;;13.07;11.43;;;;;;;;;;5073230;28;20474;-89
2023/02/17 03:40:22;;;;;;;12.77;11.48;;;;;;;;;;5073285;28;20415;-89
2023/02/17 03:42:48;;;;;;;13.77;11.80;;;;;;;;;;5072807;28;20383;-88
2023/02/17 03:45:14;;;;;;;14.37;12.13;;;;;;;;;;5068086;28;20389;-89
2023/02/17 03:47:40;;;;;;;13.35;11.90;;;;;;;;;;5053745;28;20421;-88
2023/02/17 03:50:06;;;;;;;12.65;11.45;;;;;;;;;;5035740;28;20407;-89
2023/02/17 03:52:32;;;;;;;12.77;11.32;;;;;;;;;;5053879;28;20404;-89
2023/02/17 03:54:58;;;;;;;12.85;10.85;;;;;;;;;;5035533;28;20463;-90
2023/02/17 03:57:25;;;;;;;12.40;11.10;;;;;;;;;;5053432;28;20817;-89
2023/02/17 03:59:50;;;;;;;12.35;10.90;;;;;;;;;;5053314;28;20416;-90
2023/02/17 04:02:16;;;;;;;13.02;11.70;;;;;;;;;;5053225;28;20374;-89
2023/02/17 04:04:42;;;;;;;12.45;11.15;;;;;;;;;;5035468;28;20420;-90
2023/02/17 04:07:08;;;;;;;11.68;10.48;;;;;;;;;;5053152;28;20377;-90
2023/02/17 04:09:34;;;;;;;13.50;11.18;;;;;;;;;;5053226;28;20394;-89
2023/02/17 04:12:00;;;;;;;13.05;11.57;;;;;;;;;;5050178;28;20421;-89
2023/02/17 04:14:26;;;;;;;12.57;10.93;;;;;;;;;;5072961;28;20893;-89
2023/02/17 04:16:52;;;;;;;13.40;12.00;;;;;;;;;;5072946;28;20384;-88
2023/02/17 04:19:18;;;;;;;20.40;15.68;;;;;;;;;;5073189;28;20765;-88
2023/02/17 04:21:44;;;;;;;19.27;14.50;;;;;;;;;;5054266;28;20570;-89
2023/02/17 04:24:10;;;;;;;39.00;24.77;;;;;;;;;;5072823;28;20784;-89
2023/02/17 04:26:36;;;;;;;45.45;26.80;;;;;;;;;;5060304;28;20379;-89
2023/02/17 04:29:03;;;;;;;43.07;24.97;;;;;;;;;;5063816;28;20867;-88
2023/02/17 04:31:29;;;;;;;35.85;23.70;;;;;;;;;;5072690;28;20418;-91
2023/02/17 04:33:55;;;;;;;36.47;23.07;;;;;;;;;;5072424;28;20411;-89
2023/02/17 04:36:22;;;;;;;33.72;22.08;;;;;;;;;;5072610;28;20399;-89
2023/02/17 04:38:48;;;;;;;27.05;18.45;;;;;;;;;;5072486;28;20408;-89
2023/02/17 04:41:14;;;;;;;29.55;18.95;;;;;;;;;;5054454;28;20367;-88
2023/02/17 04:43:40;;;;;;;17.85;12.40;;;;;;;;;;5071879;28;20380;-89
2023/02/17 04:46:06;;;;;;;15.63;12.03;;;;;;;;;;5033797;28;20386;-88
2023/02/17 04:48:31;;;;;;;13.55;11.88;;;;;;;;;;5056479;28;20384;-88
2023/02/17 04:50:58;;;;;;;14.63;11.40;;;;;;;;;;5051635;28;20417;-90
2023/02/17 04:53:23;;;;;;;14.27;11.45;;;;;;;;;;5035623;28;21018;-90
2023/02/17 04:55:51;;;;;;;14.13;11.10;;;;;;;;;;5054227;28;20460;-88
2023/02/17 04:58:17;;;;;;;12.25;10.95;;;;;;;;;;5054015;28;20416;-90
2023/02/17 05:00:43;;;;;;;15.90;11.43;;;;;;;;;;5071968;28;20388;-91
2023/02/17 05:03:09;;;;;;;15.90;12.10;;;;;;;;;;5071466;28;20411;-91
2023/02/17 05:05:35;;;;;;;12.95;11.07;;;;;;;;;;5053181;28;20471;-90
2023/02/17 05:08:01;;;;;;;14.75;12.38;;;;;;;;;;5050545;28;20393;-88
2023/02/17 05:10:27;;;;;;;15.90;13.38;;;;;;;;;;5043717;28;20400;-90
2023/02/17 05:12:53;;;;;;;19.23;15.20;;;;;;;;;;5042861;28;20495;-90
2023/02/17 05:15:19;;;;;;;22.13;16.73;;;;;;;;;;5042034;28;20537;-90
2023/02/17 05:17:45;;;;;;;21.88;16.13;;;;;;;;;;5070148;28;20387;-89
2023/02/17 05:20:11;;;;;;;27.08;18.00;;;;;;;;;;5065226;28;20549;-89
2023/02/17 05:22:37;;;;;;;23.08;17.02;;;;;;;;;;5070514;28;20380;-89
2023/02/17 05:25:03;;;;;;;23.37;16.30;;;;;;;;;;5070667;28;20846;-89
2023/02/17 05:27:29;;;;;;;20.75;15.75;;;;;;;;;;5057092;28;20458;-89
2023/02/17 05:29:55;;;;;;;26.00;16.90;;;;;;;;;;5062945;28;20848;-89
2023/02/17 05:32:22;;;;;;;21.25;15.52;;;;;;;;;;5070370;28;20380;-90
2023/02/17 05:34:48;;;;;;;26.27;17.73;;;;;;;;;;5070410;28;20384;-88
2023/02/17 05:37:14;;;;;;;20.63;15.95;;;;;;;;;;5069926;28;20429;-89
2023/02/17 05:39:40;;;;;;;20.20;15.52;;;;;;;;;;5071669;28;20395;-89
2023/02/17 05:42:06;;;;;;;18.48;14.00;;;;;;;;;;5071347;28;20906;-89
2023/02/17 05:44:32;;;;;;;18.23;13.68;;;;;;;;;;5071385;28;20375;-89
2023/02/17 05:46:58;;;;;;;15.50;12.75;;;;;;;;;;5071405;28;20384;-88
2023/02/17 05:49:23;;;;;;;16.57;12.77;;;;;;;;;;5071466;28;20462;-89
2023/02/17 05:51:50;;;;;;;14.32;12.38;;;;;;;;;;5071322;28;20387;-89
2023/02/17 05:54:15;;;;;;;17.58;14.80;;;;;;;;;;5071263;28;20391;-88
2023/02/17 05:56:41;;;;;;;14.80;12.67;;;;;;;;;;5071217;28;20430;-88
2023/02/17 05:59:07;;;;;;;13.52;12.10;;;;;;;;;;5071271;28;20924;-88
2023/02/17 06:01:33;;;;;;;15.88;12.65;;;;;;;;;;5071277;28;20407;-88
2023/02/17 06:03:59;;;;;;;13.07;11.70;;;;;;;;;;5053332;28;20930;-89
2023/02/17 06:06:28;;;;;;;16.45;12.63;;;;;;;;;;5071127;28;20399;-88
2023/02/17 06:08:54;;;;;;;14.90;13.05;;;;;;;;;;5071195;28;20387;-88
2023/02/17 06:11:20;;;;;;;12.80;11.23;;;;;;;;;;5071316;28;20446;-90
2023/02/17 06:13:46;;;;;;;16.85;11.65;;;;;;;;;;5048041;28;20931;-89
2023/02/17 06:16:12;;;;;;;14.80;11.00;;;;;;;;;;5025632;28;20384;-88
2023/02/17 06:18:38;;;;;;;13.00;10.45;;;;;;;;;;5070999;28;20429;-89
2023/02/17 06:21:04;;;;;;;13.65;10.18;;;;;;;;;;5071104;28;20871;-89
2023/02/17 06:23:30;;;;;;;11.20;9.90;;;;;;;;;;5071007;28;20384;-89
2023/02/17 06:25:56;;;;;;;13.23;9.63;;;;;;;;;;5052948;28;20429;-89
2023/02/17 06:28:22;;;;;;;10.95;9.32;;;;;;;;;;5065522;28;20424;-88
2023/02/17 06:30:48;;;;;;;11.57;9.90;;;;;;;;;;5053260;28;20397;-89
2023/02/17 06:33:14;;;;;;;12.88;10.65;;;;;;;;;;5050936;28;20385;-90
2023/02/17 06:35:40;;;;;;;10.77;9.67;;;;;;;;;;5051038;28;20404;-88
2023/02/17 06:38:06;;;;;;;13.77;10.18;;;;;;;;;;5050936;28;20406;-90
2023/02/17 06:40:32;;;;;;;11.65;8.95;;;;;;;;;;5050957;28;20924;-88
2023/02/17 06:42:58;;;;;;;11.20;9.60;;;;;;;;;;5050669;28;20384;-89
2023/02/17 06:45:24;;;;;;;12.27;9.45;;;;;;;;;;5051807;28;20373;-90
2023/02/17 06:47:50;;;;;;;11.48;9.30;;;;;;;;;;5054896;28;20435;-89
2023/02/17 06:50:16;;;;;;;11.13;9.50;;;;;;;;;;5054374;28;20874;-88
2023/02/17 06:52:42;;;;;;;10.70;9.35;;;;;;;;;;5036614;28;20374;-88
2023/02/17 06:55:08;;;;;;;10.80;9.10;;;;;;;;;;5054500;28;20393;-88
2023/02/17 06:57:34;;;;;;;13.75;9.75;;;;;;;;;;5036608;28;20889;-88
2023/02/17 07:00:00;;;;;;;13.82;9.27;;;;;;;;;;5054090;28;20409;-89
2023/02/17 07:02:26;;;;;;;12.60;9.60;;;;;;;;;;5061562;28;20376;-88
2023/02/17 07:04:52;;;;;;;15.50;9.87;;;;;;;;;;5074421;28;20415;-90
2023/02/17 07:07:18;;;;;;;13.75;10.43;;;;;;;;;;5074339;28;20853;-88
2023/02/17 07:09:44;;;;;;;14.40;10.20;;;;;;;;;;5074353;28;20386;-89
2023/02/17 07:12:10;;;;;;;13.07;10.45;;;;;;;;;;5038722;28;20732;-88
2023/02/17 07:14:36;;;;;;;11.30;9.82;;;;;;;;;;5036211;28;20425;-89
2023/02/17 07:17:02;;;;;;;13.10;10.38;;;;;;;;;;5054118;28;20435;-88
2023/02/17 07:19:28;;;;;;;14.00;10.02;;;;;;;;;;5057477;28;20470;-89
2023/02/17 07:21:54;;;;;;;10.93;9.32;;;;;;;;;;5074400;28;20380;-89
2023/02/17 07:24:20;;;;;;;11.80;10.00;;;;;;;;;;5064560;28;20387;-88
2023/02/17 07:26:46;;;;;;;12.48;9.55;;;;;;;;;;5056400;28;20376;-88
2023/02/17 07:29:12;;;;;;;10.63;9.53;;;;;;;;;;5064964;28;20394;-88
2023/02/17 07:31:38;;;;;;;13.02;9.55;;;;;;;;;;5073919;28;20392;-88
2023/02/17 07:34:05;;;;;;;11.88;9.88;;;;;;;;;;5055899;28;20392;-87
2023/02/17 07:36:31;;;;;;;11.80;9.30;;;;;;;;;;5065351;28;20390;-87
2023/02/17 07:38:57;;;;;;;13.25;9.65;;;;;;;;;;5055662;28;20471;-88
2023/02/17 07:41:24;;;;;;;12.30;9.88;;;;;;;;;;5055648;28;20379;-89
2023/02/17 07:43:53;;;;;;;12.85;9.73;;;;;;;;;;5073799;28;20368;-88
2023/02/17 07:46:19;;;;;;;10.90;9.75;;;;;;;;;;5074174;28;20387;-89
2023/02/17 07:48:45;;;;;;;12.02;9.80;;;;;;;;;;5074203;28;20415;-89
2023/02/17 07:51:12;;;;;;;10.82;9.68;;;;;;;;;;5061202;28;20373;-88
2023/02/17 07:53:38;;;;;;;11.75;9.98;;;;;;;;;;5057778;28;20796;-89
2023/02/17 07:56:05;;;;;;;13.50;10.23;;;;;;;;;;5054240;28;20448;-89
2023/02/17 07:58:32;;;;;;;12.02;9.40;;;;;;;;;;5069669;28;20411;-89
2023/02/17 08:00:58;;;;;;;12.75;9.48;;;;;;;;;;5073454;28;20375;-88
2023/02/17 08:03:24;;;;;;;10.82;9.50;;;;;;;;;;5073280;28;20380;-89
2023/02/17 08:05:51;;;;;;;11.48;9.10;;;;;;;;;;5073217;28;20380;-88
2023/02/17 08:13:47;;;;;;;10.48;8.95;;;;;;;;;;5072832;28;20410;-86
2023/02/17 08:16:13;;;;;;;12.45;9.50;;;;;;;;;;5072912;28;20392;-87
2023/02/17 08:18:39;;;;;;;10.77;9.40;;;;;;;;;;5073074;28;20410;-87
2023/02/17 08:21:05;;;;;;;12.07;9.43;;;;;;;;;;5042831;28;20741;-86
2023/02/17 08:23:31;;;;;;;14.25;9.65;;;;;;;;;;5044019;28;20387;-87
2023/02/17 08:25:58;;;;;;;11.18;9.68;;;;;;;;;;5070331;28;20376;-86
2023/02/17 08:28:24;;;;;;;14.15;9.90;;;;;;;;;;5067298;28;20378;-87
2023/02/17 08:30:50;;;;;;;10.73;9.60;;;;;;;;;;5070094;28;20390;-87
2023/02/17 08:33:17;;;;;;;13.20;9.45;;;;;;;;;;5072756;28;20384;-87
2023/02/17 08:35:46;;;;;;;10.35;8.70;;;;;;;;;;5072805;28;20879;-88
2023/02/17 08:38:12;;;;;;;9.45;8.55;;;;;;;;;;5072717;28;20414;-87
2023/02/17 08:40:38;;;;;;;11.27;9.10;;;;;;;;;;5072950;28;20383;-90
2023/02/17 08:43:06;;;;;;;12.27;9.32;;;;;;;;;;5054508;28;20923;-88
2023/02/17 08:45:32;;;;;;;9.90;8.82;;;;;;;;;;5072624;28;20375;-88
2023/02/17 08:47:58;;;;;;;13.40;10.23;;;;;;;;;;5072363;28;20383;-88
2023/02/17 08:50:24;;;;;;;14.52;11.27;;;;;;;;;;5052925;28;20959;-88
2023/02/17 08:52:50;;;;;;;11.05;9.90;;;;;;;;;;5036210;28;20398;-88
2023/02/17 08:55:17;;;;;;;11.77;9.02;;;;;;;;;;5071241;28;20414;-89
2023/02/17 08:57:44;;;;;;;12.93;8.63;;;;;;;;;;5072044;28;20433;-86
2023/02/17 09:00:10;;;;;;;14.35;9.30;;;;;;;;;;5054245;28;20451;-90
2023/02/17 09:02:37;;;;;;;13.98;9.75;;;;;;;;;;5063197;28;20853;-88
2023/02/17 09:05:04;;;;;;;13.80;10.23;;;;;;;;;;5063930;28;20381;-87
2023/02/17 09:07:30;;;;;;;15.13;10.38;;;;;;;;;;5059420;28;20376;-91
2023/02/17 09:09:56;;;;;;;11.15;9.60;;;;;;;;;;5072915;28;20384;-90
2023/02/17 09:12:22;;;;;;;10.57;8.73;;;;;;;;;;5051968;28;20384;-89
2023/02/17 09:14:48;;;;;;;10.27;8.68;;;;;;;;;;5063815;28;20395;-89
2023/02/17 09:17:14;;;;;;;10.75;7.50;;;;;;;;;;5073077;28;20460;-88
2023/02/17 09:19:40;;;;;;;8.77;7.82;;;;;;;;;;5072412;28;20882;-89
2023/02/17 09:22:06;;;;;;;10.95;8.13;;;;;;;;;;5070667;28;20530;-90
2023/02/17 09:24:33;;;;;;;12.18;7.38;;;;;;;;;;5054689;28;20383;-89
2023/02/17 09:27:01;;;;;;;11.07;7.72;;;;;;;;;;5071968;28;20388;-89
2023/02/17 09:29:27;;;;;;;17.73;10.37;;;;;;;;;;5042824;28;20396;-89
2023/02/17 09:31:53;;;;;;;12.35;8.60;;;;;;;;;;5071898;28;20768;-88
2023/02/17 09:34:19;;;;;;;10.73;7.45;;;;;;;;;;5071582;28;20445;-89
2023/02/17 09:36:45;;;;;;;11.00;7.40;;;;;;;;;;5071721;28;20877;-90
2023/02/17 09:39:12;;;;;;;10.45;6.97;;;;;;;;;;5039421;28;20409;-87
2023/02/17 09:41:38;;;;;;;12.75;7.68;;;;;;;;;;5071371;28;20388;-86
2023/02/17 09:44:06;;;;;;;10.43;7.27;;;;;;;;;;5071339;28;20429;-87
2023/02/17 09:46:32;;;;;;;11.85;7.07;;;;;;;;;;5066612;28;20855;-89
2023/02/17 09:49:03;;;;;;;9.05;6.68;;;;;;;;;;5058977;28;20466;-88
2023/02/17 09:51:29;;;;;;;8.88;6.70;;;;;;;;;;5053533;28;20433;-86
2023/02/17 09:54:00;;;;;;;8.60;5.70;;;;;;;;;;5071226;28;20446;-87
2023/02/17 09:56:30;;;;;;;7.35;6.03;;;;;;;;;;5071393;28;20441;-89
2023/02/17 09:58:58;;;;;;;10.95;6.50;;;;;;;;;;5057423;28;20419;-85
2023/02/17 10:01:28;;;;;;;8.43;6.20;;;;;;;;;;5053153;28;20761;-85
2023/02/17 10:04:02;;;;;;;10.57;5.90;;;;;;;;;;5071051;28;20456;-86
2023/02/17 10:06:33;;;;;;;9.02;5.68;;;;;;;;;;5071035;28;20383;-85
2023/02/17 10:09:23;;;;;;;10.00;5.78;;;;;;;;;;5069942;28;20729;-86
2023/02/17 10:12:09;;;;;;;7.30;5.40;;;;;;;;;;5071033;28;20388;-85
2023/02/17 10:14:54;;;;;;;6.05;4.85;;;;;;;;;;5070907;28;20399;-85
2023/02/17 10:17:31;;;;;;;10.10;5.55;;;;;;;;;;5070966;28;20387;-85
2023/02/17 10:20:03;;;;;;;8.07;5.68;;;;;;;;;;5056184;28;20441;-86
2023/02/17 10:22:30;;;;;;;7.57;5.47;;;;;;;;;;5073415;28;20796;-85
2023/02/17 10:24:56;;;;;;;7.32;5.60;;;;;;;;;;5075147;28;20395;-85
2023/02/17 10:27:58;;;;;;;6.82;5.97;;;;;;;;;;5075077;28;20403;-85
2023/02/17 10:30:32;;;;;;;8.63;5.60;;;;;;;;;;4969316;28;20938;-84
2023/02/17 10:33:04;;;;;;;6.28;5.60;;;;;;;;;;5043612;28;20472;-86
2023/02/17 10:35:37;;;;;;;10.10;5.53;;;;;;;;;;5054838;28;20396;-85
2023/02/17 10:38:11;;;;;;;10.68;5.72;;;;;;;;;;5054801;28;20431;-85
2023/02/17 10:40:37;;;;;;;8.10;5.50;;;;;;;;;;5054829;28;20388;-85
2023/02/17 10:43:05;;;;;;;8.30;5.55;;;;;;;;;;5036543;28;20393;-86
2023/02/17 10:45:31;;;;;;;9.32;5.80;;;;;;;;;;5055572;28;20382;-85
2023/02/17 10:48:01;;;;;;;7.40;5.65;;;;;;;;;;5056273;28;20385;-85
2023/02/17 10:50:27;;;;;;;11.32;5.38;;;;;;;;;;5054165;28;20420;-84
2023/02/17 10:52:55;;;;;;;10.60;5.78;;;;;;;;;;5065171;28;20379;-85
2023/02/17 10:55:24;;;;;;;8.02;5.97;;;;;;;;;;5057498;28;20431;-85
2023/02/17 10:57:56;;;;;;;9.65;6.07;;;;;;;;;;5065176;28;20376;-85
2023/02/17 11:00:22;;;;;;;9.75;5.90;;;;;;;;;;5069742;28;20432;-85
2023/02/17 11:02:52;;;;;;;7.22;5.80;;;;;;;;;;5054280;28;20377;-85
2023/02/17 11:05:27;;;;;;;7.90;5.72;;;;;;;;;;5054255;28;20409;-85
2023/02/17 11:08:02;;;;;;;9.02;5.93;;;;;;;;;;5054304;28;20376;-85
2023/02/17 11:10:33;;;;;;;8.60;6.00;;;;;;;;;;5035064;28;20893;-84
2023/02/17 11:13:01;;;;;;;9.38;6.25;;;;;;;;;;5073657;28;20460;-84
2023/02/17 11:15:43;;;;;;;7.13;6.40;;;;;;;;;;5056050;28;20809;-84
2023/02/17 11:18:20;;;;;;;6.70;5.93;;;;;;;;;;5156265;22;20432;-89
2023/02/17 11:20:46;;;;;;;7.93;6.57;;;;;;;;;;5058976;28;20759;-90
2023/02/17 11:23:15;;;;;;;11.85;6.82;;;;;;;;;;5055817;28;20381;-89
2023/02/17 11:25:43;;;;;;;9.63;6.82;;;;;;;;;;5055031;28;20377;-89
2023/02/17 11:28:13;;;;;;;8.32;6.93;;;;;;;;;;5050207;28;20461;-88
2023/02/17 11:30:40;;;;;;;8.90;6.00;;;;;;;;;;5028579;28;20928;-88
2023/02/17 11:33:21;;;;;;;8.68;6.30;;;;;;;;;;5054204;28;20464;-86
2023/02/17 11:35:52;;;;;;;8.25;6.22;;;;;;;;;;5051961;28;20395;-86
2023/02/17 11:38:20;;;;;;;6.70;6.10;;;;;;;;;;5053552;28;20767;-87
2023/02/17 11:40:56;;;;;;;8.43;6.38;;;;;;;;;;5053420;28;20397;-86
2023/02/17 11:43:23;;;;;;;6.85;6.15;;;;;;;;;;5053744;28;20771;-87
2023/02/17 11:45:53;;;;;;;9.00;5.53;;;;;;;;;;5053575;28;20378;-87
2023/02/17 11:48:46;;;;;;;7.87;5.37;;;;;;;;;;5053428;28;20428;-86
2023/02/17 11:51:21;;;;;;;6.90;5.50;;;;;;;;;;5035284;28;20480;-87
2023/02/17 11:53:50;;;;;;;8.85;5.53;;;;;;;;;;5053470;28;20520;-88
2023/02/17 11:56:17;;;;;;;6.82;5.38;;;;;;;;;;5052690;28;20397;-86
2023/02/17 11:58:49;;;;;;;6.78;5.40;;;;;;;;;;5039363;28;20842;-88
2023/02/17 12:01:29;;;;;;;7.03;5.50;;;;;;;;;;5036684;28;20855;-85
2023/02/17 12:04:01;;;;;;;8.23;5.78;;;;;;;;;;5038005;28;20441;-86
2023/02/17 12:06:38;;;;;;;7.05;4.95;;;;;;;;;;5034447;28;20398;-86
2023/02/17 12:09:09;;;;;;;9.03;5.17;;;;;;;;;;5037781;28;21068;-87
2023/02/17 12:11:53;;;;;;;6.30;5.05;;;;;;;;;;5034897;28;20382;-86
2023/02/17 12:14:38;;;;;;;5.72;4.90;;;;;;;;;;5037117;28;20371;-86
2023/02/17 12:17:13;;;;;;;6.57;4.80;;;;;;;;;;5039610;28;20379;-89
2023/02/17 12:19:39;;;;;;;9.82;5.18;;;;;;;;;;5033222;28;20414;-87
2023/02/17 12:22:24;;;;;;;6.13;4.70;;;;;;;;;;5037103;28;21033;-83
2023/02/17 12:25:08;;;;;;;7.32;4.88;;;;;;;;;;5032879;28;20458;-82
2023/02/17 12:27:53;;;;;;;5.40;4.78;;;;;;;;;;5037409;28;20374;-83
2023/02/17 12:30:28;;;;;;;7.95;5.38;;;;;;;;;;5034474;28;20387;-83
2023/02/17 12:33:13;;;;;;;6.30;5.15;;;;;;;;;;5036150;28;20379;-83
2023/02/17 12:35:51;;;;;;;6.55;5.13;;;;;;;;;;5034429;28;20377;-83
2023/02/17 12:38:19;;;;;;;7.82;4.80;;;;;;;;;;5032053;28;20441;-83
2023/02/17 12:40:51;;;;;;;15.15;6.03;;;;;;;;;;5031478;28;20920;-84
2023/02/17 12:43:23;;;;;;;6.15;5.13;;;;;;;;;;5033641;28;20859;-83
2023/02/17 12:45:50;;;;;;;6.13;5.30;;;;;;;;;;5032616;28;20376;-83
2023/02/17 12:48:25;;;;;;;5.30;4.65;;;;;;;;;;5032588;28;20449;-83
2023/02/17 12:50:54;;;;;;;6.80;4.45;;;;;;;;;;5031698;28;20390;-83
2023/02/17 12:53:29;;;;;;;7.00;4.70;;;;;;;;;;5036564;28;20475;-84
2023/02/17 12:55:58;;;;;;;7.47;5.32;;;;;;;;;;5033394;28;20459;-84
2023/02/17 12:58:30;;;;;;;6.43;4.90;;;;;;;;;;5036094;28;20940;-83
2023/02/17 13:01:04;;;;;;;7.68;4.60;;;;;;;;;;5023849;28;20520;-87
2023/02/17 13:03:35;;;;;;;6.20;4.73;;;;;;;;;;5051898;28;20388;-89
2023/02/17 13:06:01;;;;;;;7.57;5.07;;;;;;;;;;5043584;28;20472;-87
2023/02/17 13:08:32;;;;;;;5.93;4.10;;;;;;;;;;5052486;28;20461;-89
2023/02/17 13:11:02;;;;;;;6.35;5.53;;;;;;;;;;5041487;28;20874;-89
2023/02/17 13:13:30;;;;;;;8.30;4.32;;;;;;;;;;5050904;28;20443;-89
2023/02/17 13:16:10;;;;;;;5.47;3.88;;;;;;;;;;5054389;28;20472;-89
2023/02/17 13:18:37;;;;;;;8.60;5.25;;;;;;;;;;5037277;28;20420;-90
2023/02/17 13:21:26;;;;;;;5.95;4.47;;;;;;;;;;5048123;28;20495;-91
2023/02/17 13:24:01;;;;;;;5.82;3.40;;;;;;;;;;5048162;28;20429;-92
2023/02/17 13:26:29;;;;;;;3.85;2.72;;;;;;;;;;5054093;28;20897;-90
2023/02/17 13:29:07;;;;;;;5.90;4.10;;;;;;;;;;5053397;28;20859;-90
2023/02/17 13:31:43;;;;;;;9.48;3.80;;;;;;;;;;5030943;28;20910;-90
2023/02/17 13:34:09;;;;;;;6.27;3.20;;;;;;;;;;5049507;28;20472;-90
2023/02/17 13:36:36;;;;;;;5.88;3.60;;;;;;;;;;5053065;28;20477;-90
2023/02/17 13:39:02;;;;;;;4.72;3.28;;;;;;;;;;5052432;28;20833;-88
2023/02/17 13:41:48;;;;;;;4.30;3.00;;;;;;;;;;5047016;28;20393;-90
2023/02/17 13:44:34;;;;;;;4.93;3.25;;;;;;;;;;5048038;28;20381;-90
2023/02/17 13:47:02;;;;;;;7.35;3.35;;;;;;;;;;5053522;28;20404;-90
2023/02/17 13:49:31;;;;;;;7.95;3.17;;;;;;;;;;5041840;28;20391;-87
2023/02/17 13:52:06;;;;;;;4.45;3.00;;;;;;;;;;5051933;28;20587;-91
2023/02/17 13:54:32;;;;;;;4.50;2.75;;;;;;;;;;5037445;28;20855;-89
2023/02/17 13:56:58;;;;;;;4.25;2.45;;;;;;;;;;5048693;28;20392;-91
2023/02/17 13:59:25;;;;;;;4.97;2.60;;;;;;;;;;5034336;28;20417;-91
2023/02/17 14:01:53;;;;;;;4.43;2.60;;;;;;;;;;5053602;28;20393;-91
2023/02/17 14:04:24;;;;;;;3.33;2.88;;;;;;;;;;5042264;28;20436;-88
2023/02/17 14:06:51;;;;;;;4.68;2.67;;;;;;;;;;5052593;28;20385;-89
2023/02/17 14:09:44;;;;;;;6.30;2.88;;;;;;;;;;5035175;28;20404;-89
2023/02/17 14:12:18;;;;;;;4.53;2.50;;;;;;;;;;5048345;28;20839;-89
2023/02/17 14:14:45;;;;;;;4.88;2.78;;;;;;;;;;5051338;28;20725;-89
2023/02/17 14:17:29;;;;;;;4.07;2.50;;;;;;;;;;5052300;28;20401;-89
2023/02/17 14:19:55;;;;;;;4.20;2.88;;;;;;;;;;5052787;28;20420;-89
2023/02/17 14:22:29;;;;;;;2.50;2.30;;;;;;;;;;5053785;28;20870;-91
2023/02/17 14:25:06;;;;;;;2.90;2.60;;;;;;;;;;5030131;28;20888;-89
2023/02/17 14:27:46;;;;;;;3.35;2.55;;;;;;;;;;5050803;28;20450;-89
2023/02/17 14:30:13;;;;;;;4.15;2.22;;;;;;;;;;5045628;28;20452;-89
2023/02/17 14:32:39;;;;;;;5.18;2.35;;;;;;;;;;5052732;28;20385;-89
2023/02/17 14:35:23;;;;;;;3.55;2.33;;;;;;;;;;5051619;28;20767;-88
2023/02/17 14:37:50;;;;;;;3.00;2.60;;;;;;;;;;5051992;28;20386;-88
2023/02/17 14:40:25;;;;;;;3.65;2.35;;;;;;;;;;5051651;28;20441;-89
2023/02/17 14:42:51;;;;;;;2.97;2.13;;;;;;;;;;5053656;28;20392;-88
2023/02/17 14:45:17;;;;;;;3.70;2.30;;;;;;;;;;5043664;28;20386;-87